Detall de PIREP

Printer-friendly versionPDF version

[2013/04/06 17:32:00]
Flight IATA:CT1006
Pilot Number:026
Company ICAO:CAT
Aircraft Type:DC85/A
PAX:0
Aircraft Registration:CARGO
Departing Airport: LICJ
Destination Airport: LTBA
Alternate Airport:LTAC
Online: VATSIM
Route:PAL UL869 KRK UM600 TSL UM603 GOLDO UG12 EKI
Flight Level:F370
No Slew and time accel
No pause
Crash detect
Detect pilot in Cockpit between each 30 and 45 minutes
17:32 Zero fuel Weight: 209756 Lbs, Fuel Weight: 38979 Lbs
17:32 VATSIM:LICJ 061650Z 05016KT 9999 FEW030 15/13 Q1005
17:32 VATSIM:LTBA 061650Z 12006KT 070V160 6000 NSC 18/06 Q1010 NOSIG
17:32 VOICE CATALONIAN / ALMOGAVERS ROUTE
17:33 Parking Brakes off
17:42 Take-off
17:42 Take off Weight: 247580 Lbs
17:42 Wind: 049º @ 015 Knots Heading: 064º
17:42 POS N38º 10´ 53´´ E013º 06´ 27´´
17:42 Flaps:2 at 166 Knots
17:42 Gear Up: 165 Knots
17:43 Flaps:1 at 165 Knots
17:43 Flaps:0 at 162 Knots
17:57 Wind:062º@015 Knots Heading: 080º Ground Speed: 469 Knots Altitude 28188 ft
18:06 TOC
18:06 Fuel Weight: 29592 Lb
18:12 Wind:012º@021 Knots Heading: 064º Ground Speed: 451 Knots Altitude 36876 ft
18:27 Wind:013º@015 Knots Heading: 074º Ground Speed: 483 Knots Altitude 36765 ft
18:42 Wind:272º@012 Knots Heading: 064º Ground Speed: 492 Knots Altitude 36830 ft
18:57 Wind:053º@021 Knots Heading: 075º Ground Speed: 480 Knots Altitude 36833 ft
19:01 TOD
19:01 Fuel Weight: 16755 Lb
19:12 Wind:168º@007 Knots Heading: 084º Ground Speed: 425 Knots Altitude 20246 ft
19:27 Wind:108º@006 Knots Heading: 061º Ground Speed: 186 Knots Altitude 3087 ft
19:28 Flaps:1 at 212 Knots
19:28 Gear Down: 216 Knots
19:28 Flaps:2 at 206 Knots
19:29 Flaps:3 at 173 Knots
19:30 Flaps:4 at 161 Knots
19:30 Flaps:5 at 156 Knots
19:30 TouchDown:Rate -302 ft/min Speed: 131 Knots
19:30VATSIM:LTBA 061850Z 11004KT 050V180 9999 SCT035 BKN100 18/05 Q1010 NOSIG
19:30 Land
19:30 Wind:123º@004 Knots
19:30 Heading: 057º
19:30 Flight Duration: 01:48
19:30 Landing Weight: 223050 Lbs
19:30 POS N40º 58´ 20´´ E028º 49´ 27´´
19:37 Parking brakes on
19:37 Block to Block Duration: 02:04
19:37 Final Fuel: 12766 Lbls
19:37 Spent Fuel: 26212 Lbls
19:37 Flight Length: 771 NM
19:37 TOD Land Length: 171 NM

Exportar CSV

Powered by Drupal - Modified by Danger4k